Time;durP1;ratioP1;P1;durP2;ratioP2;P2;SDS_P1;SDS_P2;PMS_P1;PMS_P2;Temp;Humidity;BMP_temperature;BMP_pressure;BME280_temperature;BME280_humidity;BME280_pressure;Samples;Min_cycle;Max_cycle;Signal;HPM_P1;HPM_P2
2021/12/09 00:02:12;;;;;;;11.17;5.10;;;;;;;;;;5003166;28;20209;-62
2021/12/09 00:04:37;;;;;;;14.77;5.93;;;;;;;;;;4998471;28;20769;-61
2021/12/09 00:07:03;;;;;;;10.73;6.13;;;;;;;;;;4995277;28;20210;-62
2021/12/09 00:09:28;;;;;;;13.67;6.00;;;;;;;;;;5003178;28;20227;-61
2021/12/09 00:11:54;;;;;;;11.53;6.10;;;;;;;;;;5007000;28;20263;-61
2021/12/09 00:14:20;;;;;;;12.67;6.30;;;;;;;;;;5005114;28;20204;-61
2021/12/09 00:16:46;;;;;;;12.50;6.10;;;;;;;;;;5006402;28;20219;-62
2021/12/09 00:19:11;;;;;;;14.03;6.80;;;;;;;;;;5006885;28;20224;-62
2021/12/09 00:21:36;;;;;;;11.97;5.70;;;;;;;;;;5006182;28;20232;-61
2021/12/09 00:24:01;;;;;;;10.83;5.10;;;;;;;;;;5003804;28;20712;-61
2021/12/09 00:26:27;;;;;;;11.17;5.50;;;;;;;;;;4998164;28;20228;-61
2021/12/09 00:28:52;;;;;;;13.27;5.57;;;;;;;;;;4995899;28;20216;-61
2021/12/09 00:31:18;;;;;;;10.73;5.40;;;;;;;;;;4999474;28;20250;-61
2021/12/09 00:33:45;;;;;;;10.90;5.30;;;;;;;;;;5004827;28;20562;-61
2021/12/09 00:36:12;;;;;;;10.33;5.33;;;;;;;;;;5006526;28;20208;-61
2021/12/09 00:38:40;;;;;;;11.13;5.70;;;;;;;;;;5006384;28;20208;-61
2021/12/09 00:41:06;;;;;;;11.90;5.20;;;;;;;;;;5004265;28;20291;-61
2021/12/09 00:43:31;;;;;;;9.73;5.50;;;;;;;;;;5005188;28;20706;-61
2021/12/09 00:45:57;;;;;;;12.97;5.53;;;;;;;;;;5005610;28;20237;-61
2021/12/09 00:48:23;;;;;;;11.80;5.40;;;;;;;;;;4996509;28;20228;-61
2021/12/09 00:50:48;;;;;;;13.20;5.70;;;;;;;;;;4997311;28;20311;-61
2021/12/09 00:53:14;;;;;;;10.53;5.57;;;;;;;;;;4997033;28;20258;-61
2021/12/09 00:55:39;;;;;;;12.10;6.07;;;;;;;;;;5005468;28;20542;-61
2021/12/09 00:58:04;;;;;;;14.30;5.37;;;;;;;;;;5005406;28;20196;-61
2021/12/09 01:00:31;;;;;;;16.50;7.33;;;;;;;;;;5005663;28;20245;-61
2021/12/09 01:02:56;;;;;;;11.63;5.67;;;;;;;;;;5006246;28;20703;-61
2021/12/09 01:05:22;;;;;;;11.00;5.90;;;;;;;;;;5009082;28;20350;-61
2021/12/09 01:07:47;;;;;;;13.50;6.77;;;;;;;;;;5010361;28;20591;-61
2021/12/09 01:10:12;;;;;;;12.13;5.40;;;;;;;;;;5004367;28;20204;-62
2021/12/09 01:12:38;;;;;;;10.20;5.03;;;;;;;;;;5000977;28;20219;-61
2021/12/09 01:15:04;;;;;;;13.07;5.67;;;;;;;;;;4998942;28;20201;-62
2021/12/09 01:17:29;;;;;;;11.73;5.47;;;;;;;;;;4990287;28;20266;-61
2021/12/09 01:19:54;;;;;;;8.20;4.37;;;;;;;;;;5007655;28;20232;-61
2021/12/09 01:22:20;;;;;;;9.67;4.80;;;;;;;;;;5009301;28;26158;-61
2021/12/09 01:24:45;;;;;;;10.83;5.80;;;;;;;;;;5008238;28;20648;-61
2021/12/09 01:27:11;;;;;;;10.30;4.73;;;;;;;;;;5008608;28;20695;-61
2021/12/09 01:29:40;;;;;;;11.77;5.13;;;;;;;;;;5009275;28;20769;-61
2021/12/09 01:32:07;;;;;;;12.00;5.30;;;;;;;;;;5003939;28;20294;-61
2021/12/09 01:34:33;;;;;;;11.73;4.83;;;;;;;;;;5001880;28;20215;-61
2021/12/09 01:36:59;;;;;;;12.77;5.30;;;;;;;;;;5000237;28;20204;-61
2021/12/09 01:39:27;;;;;;;12.10;4.87;;;;;;;;;;4987388;28;20235;-61
2021/12/09 01:41:52;;;;;;;15.93;5.37;;;;;;;;;;5010342;28;20236;-61
2021/12/09 01:44:17;;;;;;;11.60;5.40;;;;;;;;;;5007950;28;20282;-61
2021/12/09 01:46:43;;;;;;;10.90;5.00;;;;;;;;;;5009547;28;20200;-61
2021/12/09 01:49:08;;;;;;;9.73;5.10;;;;;;;;;;4989600;28;20236;-61
2021/12/09 01:51:34;;;;;;;11.73;5.87;;;;;;;;;;4988130;28;20571;-61
2021/12/09 01:53:59;;;;;;;14.17;5.60;;;;;;;;;;4986814;28;20220;-61
2021/12/09 01:56:25;;;;;;;12.90;6.67;;;;;;;;;;4980331;28;20213;-61
2021/12/09 01:58:51;;;;;;;9.53;5.13;;;;;;;;;;4979767;28;20686;-61
2021/12/09 02:01:16;;;;;;;13.43;6.43;;;;;;;;;;4981542;28;20264;-61
2021/12/09 02:03:42;;;;;;;12.87;6.33;;;;;;;;;;4988050;28;20210;-61
2021/12/09 02:06:07;;;;;;;11.97;6.93;;;;;;;;;;4988419;28;20210;-61
2021/12/09 02:08:32;;;;;;;13.17;5.60;;;;;;;;;;4987580;28;20236;-61
2021/12/09 02:10:57;;;;;;;15.37;6.67;;;;;;;;;;4991283;28;20213;-61
2021/12/09 02:13:23;;;;;;;11.37;5.87;;;;;;;;;;4987779;28;20237;-61
2021/12/09 02:15:51;;;;;;;12.93;5.33;;;;;;;;;;4988639;28;20209;-61
2021/12/09 02:18:16;;;;;;;12.77;6.77;;;;;;;;;;4980066;28;20201;-61
2021/12/09 02:20:42;;;;;;;15.97;6.07;;;;;;;;;;4980240;28;20240;-61
2021/12/09 02:23:10;;;;;;;14.60;6.23;;;;;;;;;;4981010;28;20315;-62
2021/12/09 02:25:35;;;;;;;9.97;5.03;;;;;;;;;;4988989;28;20318;-61
2021/12/09 02:28:01;;;;;;;16.03;5.73;;;;;;;;;;4987115;28;20328;-62
2021/12/09 02:30:26;;;;;;;12.40;5.70;;;;;;;;;;4990240;28;20221;-61
2021/12/09 02:32:51;;;;;;;12.33;6.33;;;;;;;;;;4988249;28;20205;-61
2021/12/09 02:35:17;;;;;;;11.87;5.57;;;;;;;;;;4987207;28;20263;-61
2021/12/09 02:37:44;;;;;;;10.23;5.73;;;;;;;;;;4988835;28;20220;-61
2021/12/09 02:40:10;;;;;;;15.70;6.80;;;;;;;;;;4981981;28;20291;-61
2021/12/09 02:42:35;;;;;;;13.43;5.70;;;;;;;;;;4978958;28;20681;-61
2021/12/09 02:45:01;;;;;;;13.70;6.03;;;;;;;;;;4978945;28;20259;-61
2021/12/09 02:47:26;;;;;;;11.17;5.73;;;;;;;;;;4984283;28;20701;-61
2021/12/09 02:49:51;;;;;;;10.57;5.00;;;;;;;;;;4995947;28;20653;-61
2021/12/09 02:52:16;;;;;;;13.37;6.00;;;;;;;;;;5006664;28;20291;-61
2021/12/09 02:54:42;;;;;;;12.80;5.67;;;;;;;;;;5005793;28;20629;-61
2021/12/09 02:57:07;;;;;;;12.23;5.23;;;;;;;;;;5006213;28;20283;-61
2021/12/09 02:59:33;;;;;;;13.87;6.57;;;;;;;;;;5006289;28;20303;-61
2021/12/09 03:01:59;;;;;;;15.77;6.73;;;;;;;;;;5001142;28;20216;-61
2021/12/09 03:04:25;;;;;;;17.60;6.03;;;;;;;;;;4997854;28;20295;-61
2021/12/09 03:06:53;;;;;;;12.40;6.70;;;;;;;;;;4997687;28;21181;-61
2021/12/09 03:09:19;;;;;;;12.33;5.77;;;;;;;;;;5020301;28;20234;-61
2021/12/09 03:11:45;;;;;;;13.70;5.97;;;;;;;;;;5006423;28;20220;-61
2021/12/09 03:14:10;;;;;;;12.77;5.90;;;;;;;;;;5016472;28;20236;-61
2021/12/09 03:16:36;;;;;;;12.73;5.17;;;;;;;;;;5004149;28;20212;-61
2021/12/09 03:19:03;;;;;;;12.20;5.80;;;;;;;;;;5025026;28;20215;-61
2021/12/09 03:21:30;;;;;;;13.20;5.13;;;;;;;;;;5019929;28;20316;-61
2021/12/09 03:23:56;;;;;;;11.33;5.93;;;;;;;;;;5003318;28;20205;-61
2021/12/09 03:26:28;;;;;;;11.47;5.10;;;;;;;;;;4996577;28;20208;-61
2021/12/09 03:28:54;;;;;;;15.50;5.67;;;;;;;;;;5015260;28;20239;-61
2021/12/09 03:31:19;;;;;;;11.50;5.90;;;;;;;;;;5018226;28;20207;-61
2021/12/09 03:33:45;;;;;;;15.07;5.00;;;;;;;;;;5025466;28;20645;-61
2021/12/09 03:36:10;;;;;;;12.43;5.27;;;;;;;;;;5025116;28;20220;-61
2021/12/09 03:38:35;;;;;;;15.40;6.53;;;;;;;;;;5024847;28;20646;-61
2021/12/09 03:41:01;;;;;;;17.13;6.13;;;;;;;;;;5025120;28;20215;-61
2021/12/09 03:43:26;;;;;;;12.73;5.47;;;;;;;;;;5024507;28;20345;-61
2021/12/09 03:45:53;;;;;;;10.33;4.90;;;;;;;;;;5023534;28;20212;-61
2021/12/09 03:48:18;;;;;;;15.93;6.00;;;;;;;;;;5017130;28;20232;-61
2021/12/09 03:50:45;;;;;;;11.13;4.67;;;;;;;;;;5015611;28;20479;-61
2021/12/09 03:53:11;;;;;;;10.70;5.20;;;;;;;;;;5016761;28;20239;-61
2021/12/09 03:55:36;;;;;;;12.73;5.13;;;;;;;;;;5024977;28;20227;-61
2021/12/09 03:58:01;;;;;;;11.83;6.47;;;;;;;;;;5023781;28;20219;-61
2021/12/09 04:00:28;;;;;;;14.43;6.37;;;;;;;;;;5025091;28;20220;-61
2021/12/09 04:02:53;;;;;;;12.17;5.73;;;;;;;;;;5021685;28;20208;-61
2021/12/09 04:05:19;;;;;;;12.10;5.70;;;;;;;;;;5007524;28;20299;-61
2021/12/09 04:07:44;;;;;;;14.47;6.27;;;;;;;;;;5005110;28;20303;-61
2021/12/09 04:10:09;;;;;;;13.50;6.07;;;;;;;;;;5005426;28;20325;-61
2021/12/09 04:12:34;;;;;;;12.87;5.30;;;;;;;;;;5015636;28;20680;-61
2021/12/09 04:15:00;;;;;;;12.87;6.03;;;;;;;;;;5001402;28;20626;-61
2021/12/09 04:17:25;;;;;;;16.27;6.63;;;;;;;;;;5021715;28;20566;-60
2021/12/09 04:19:51;;;;;;;15.63;5.83;;;;;;;;;;5024173;28;20226;-61
2021/12/09 04:22:17;;;;;;;12.57;6.50;;;;;;;;;;5012145;28;20212;-61
2021/12/09 04:24:42;;;;;;;13.10;6.20;;;;;;;;;;5004987;28;20208;-61
2021/12/09 04:27:07;;;;;;;15.00;7.33;;;;;;;;;;5004201;28;20204;-61
2021/12/09 04:29:32;;;;;;;18.13;8.63;;;;;;;;;;5005175;28;20244;-61
2021/12/09 04:31:58;;;;;;;19.20;9.40;;;;;;;;;;5001922;28;20216;-61
2021/12/09 04:34:23;;;;;;;23.00;10.40;;;;;;;;;;4995856;28;20562;-61
2021/12/09 04:36:49;;;;;;;21.13;10.27;;;;;;;;;;4996948;28;20286;-61
2021/12/09 04:39:14;;;;;;;20.10;9.97;;;;;;;;;;5018772;28;20261;-61
2021/12/09 04:41:40;;;;;;;19.63;9.27;;;;;;;;;;5023862;28;20216;-61
2021/12/09 04:44:05;;;;;;;17.27;8.23;;;;;;;;;;5023866;28;20683;-61
2021/12/09 04:46:30;;;;;;;16.43;7.87;;;;;;;;;;5023441;28;20219;-61
2021/12/09 04:48:56;;;;;;;18.80;7.50;;;;;;;;;;5023680;28;20238;-62
2021/12/09 04:51:22;;;;;;;15.17;7.67;;;;;;;;;;5023896;28;20349;-61
2021/12/09 04:53:47;;;;;;;20.37;7.67;;;;;;;;;;5021389;28;20767;-61
2021/12/09 04:56:12;;;;;;;20.40;7.17;;;;;;;;;;5015640;28;20223;-61
2021/12/09 04:58:37;;;;;;;13.53;6.53;;;;;;;;;;5016304;28;20274;-61
2021/12/09 05:01:04;;;;;;;18.20;6.43;;;;;;;;;;5015632;28;20523;-61
2021/12/09 05:03:29;;;;;;;17.40;6.73;;;;;;;;;;5016241;28;20308;-61
2021/12/09 05:05:54;;;;;;;16.03;6.73;;;;;;;;;;5004681;28;20295;-61
2021/12/09 05:08:20;;;;;;;12.83;6.13;;;;;;;;;;5002321;28;20228;-61
2021/12/09 05:10:54;;;;;;;15.97;5.40;;;;;;;;;;5011372;28;20240;-61
2021/12/09 05:13:20;;;;;;;13.13;6.53;;;;;;;;;;5021545;28;20310;-61
2021/12/09 05:15:45;;;;;;;14.87;5.93;;;;;;;;;;5003805;28;20412;-61
2021/12/09 05:18:11;;;;;;;12.73;5.83;;;;;;;;;;4996856;28;20740;-61
2021/12/09 05:20:36;;;;;;;16.53;5.83;;;;;;;;;;4996442;28;20558;-61
2021/12/09 05:23:01;;;;;;;15.57;6.47;;;;;;;;;;4994845;28;20228;-61
2021/12/09 05:25:26;;;;;;;18.07;6.03;;;;;;;;;;5004173;28;20326;-61
2021/12/09 05:27:53;;;;;;;13.03;6.20;;;;;;;;;;5004387;28;20271;-61
2021/12/09 05:30:24;;;;;;;14.17;6.03;;;;;;;;;;5004072;28;20310;-61
2021/12/09 05:32:49;;;;;;;15.73;5.47;;;;;;;;;;5023978;28;20224;-61
2021/12/09 05:35:14;;;;;;;15.77;5.77;;;;;;;;;;5023536;28;20254;-61
2021/12/09 05:37:40;;;;;;;12.93;5.30;;;;;;;;;;5023267;28;20676;-61
2021/12/09 05:40:05;;;;;;;10.77;5.20;;;;;;;;;;5018016;28;20239;-61
2021/12/09 05:42:30;;;;;;;12.80;5.00;;;;;;;;;;5015681;28;20679;-61
2021/12/09 05:44:57;;;;;;;18.83;5.13;;;;;;;;;;5015064;28;20583;-61
2021/12/09 05:47:22;;;;;;;13.17;5.60;;;;;;;;;;5020500;28;20293;-61
2021/12/09 05:49:48;;;;;;;13.07;5.17;;;;;;;;;;5014893;28;20255;-61
2021/12/09 05:52:13;;;;;;;10.27;4.40;;;;;;;;;;5007160;28;20211;-61
2021/12/09 05:54:39;;;;;;;15.70;5.07;;;;;;;;;;5008801;28;20208;-61
2021/12/09 05:57:04;;;;;;;12.80;5.40;;;;;;;;;;5007526;28;20235;-61
2021/12/09 05:59:29;;;;;;;12.23;5.03;;;;;;;;;;5008680;28;20212;-61
2021/12/09 06:01:55;;;;;;;12.87;4.53;;;;;;;;;;5005374;28;20216;-61
2021/12/09 06:04:21;;;;;;;12.80;5.07;;;;;;;;;;4999743;28;20224;-61
2021/12/09 06:06:47;;;;;;;14.43;5.17;;;;;;;;;;5001504;28;20208;-61
2021/12/09 06:09:12;;;;;;;11.07;3.90;;;;;;;;;;5001516;28;20228;-61
2021/12/09 06:11:38;;;;;;;10.83;4.60;;;;;;;;;;5008080;28;20707;-61
2021/12/09 06:14:04;;;;;;;11.50;4.57;;;;;;;;;;5007938;28;20335;-61
2021/12/09 06:16:29;;;;;;;9.97;3.90;;;;;;;;;;5008719;28;20311;-61
2021/12/09 06:18:54;;;;;;;12.10;4.40;;;;;;;;;;5007309;28;20346;-61
2021/12/09 06:21:22;;;;;;;13.03;4.93;;;;;;;;;;5008531;28;20219;-61
2021/12/09 06:23:48;;;;;;;12.23;5.27;;;;;;;;;;5008811;28;20564;-61
2021/12/09 06:26:13;;;;;;;13.00;7.13;;;;;;;;;;4999796;28;20216;-61
2021/12/09 06:28:38;;;;;;;11.00;4.83;;;;;;;;;;5014010;28;20719;-61
2021/12/09 06:31:04;;;;;;;13.40;6.00;;;;;;;;;;5013605;28;20442;-60
2021/12/09 06:33:29;;;;;;;11.27;4.93;;;;;;;;;;5013753;28;20216;-62
2021/12/09 06:35:55;;;;;;;11.57;4.90;;;;;;;;;;5009384;28;20219;-60
2021/12/09 06:38:20;;;;;;;14.40;5.30;;;;;;;;;;5016401;28;20227;-61
2021/12/09 06:40:45;;;;;;;12.27;5.40;;;;;;;;;;5026940;28;20220;-60
2021/12/09 06:43:12;;;;;;;9.43;4.30;;;;;;;;;;5026581;28;20212;-60
2021/12/09 06:45:37;;;;;;;11.33;4.47;;;;;;;;;;5023750;28;20212;-61
2021/12/09 06:48:03;;;;;;;13.20;4.63;;;;;;;;;;5006481;28;20230;-60
2021/12/09 06:50:28;;;;;;;11.17;4.17;;;;;;;;;;5033695;28;20226;-61
2021/12/09 06:52:53;;;;;;;11.70;4.60;;;;;;;;;;5033113;28;20302;-60
2021/12/09 06:55:19;;;;;;;11.77;4.80;;;;;;;;;;5032707;28;20617;-60
2021/12/09 06:57:44;;;;;;;11.23;5.70;;;;;;;;;;5033680;28;20221;-60
2021/12/09 07:00:11;;;;;;;12.83;6.93;;;;;;;;;;5033525;28;20216;-60
2021/12/09 07:02:36;;;;;;;12.97;5.43;;;;;;;;;;5031910;28;20208;-60
2021/12/09 07:05:02;;;;;;;9.07;4.07;;;;;;;;;;5032947;28;20291;-60
2021/12/09 07:07:27;;;;;;;13.43;5.00;;;;;;;;;;5032772;28;20216;-60
2021/12/09 07:09:53;;;;;;;15.07;5.23;;;;;;;;;;5024080;28;20221;-60
2021/12/09 07:12:18;;;;;;;11.83;5.00;;;;;;;;;;5023736;28;20204;-60
2021/12/09 07:14:44;;;;;;;16.17;5.13;;;;;;;;;;5017287;28;20631;-60
2021/12/09 07:17:09;;;;;;;11.97;4.80;;;;;;;;;;5013291;28;20585;-60
2021/12/09 07:19:35;;;;;;;14.97;4.47;;;;;;;;;;5013653;28;20776;-60
2021/12/09 07:22:01;;;;;;;8.93;3.83;;;;;;;;;;5005271;28;20222;-61
2021/12/09 07:24:26;;;;;;;9.57;4.00;;;;;;;;;;5032349;28;20220;-59
2021/12/09 07:26:51;;;;;;;10.93;3.87;;;;;;;;;;5033126;28;20589;-60
2021/12/09 07:29:17;;;;;;;9.30;3.47;;;;;;;;;;5012155;28;20255;-60
2021/12/09 07:31:42;;;;;;;14.37;5.40;;;;;;;;;;5024237;28;20208;-60
2021/12/09 07:34:07;;;;;;;12.33;4.67;;;;;;;;;;5032609;28;20299;-60
2021/12/09 07:36:33;;;;;;;11.33;4.53;;;;;;;;;;5031985;28;20710;-60
2021/12/09 07:38:58;;;;;;;10.10;4.60;;;;;;;;;;5032634;28;20237;-60
2021/12/09 07:41:24;;;;;;;10.83;4.37;;;;;;;;;;5032658;28;20207;-60
2021/12/09 07:43:50;;;;;;;14.83;4.63;;;;;;;;;;5031981;28;20220;-60
2021/12/09 07:46:15;;;;;;;16.20;5.37;;;;;;;;;;5032706;28;20287;-60
2021/12/09 07:48:41;;;;;;;14.83;4.97;;;;;;;;;;5032629;28;20786;-60
2021/12/09 07:51:06;;;;;;;14.93;5.03;;;;;;;;;;5010552;28;20267;-60
2021/12/09 07:53:31;;;;;;;16.47;8.63;;;;;;;;;;5013245;28;20244;-60
2021/12/09 07:55:56;;;;;;;15.10;6.53;;;;;;;;;;5013215;28;20295;-60
2021/12/09 07:58:22;;;;;;;14.97;6.93;;;;;;;;;;5011813;28;20205;-60
2021/12/09 08:00:47;;;;;;;13.57;5.10;;;;;;;;;;5013225;28;20223;-60
2021/12/09 08:03:13;;;;;;;10.70;5.53;;;;;;;;;;5012596;28;20657;-61
2021/12/09 08:05:39;;;;;;;13.27;4.70;;;;;;;;;;5012130;28;20216;-60
2021/12/09 08:08:05;;;;;;;11.93;4.70;;;;;;;;;;5004432;28;20228;-60
2021/12/09 08:10:30;;;;;;;10.77;3.80;;;;;;;;;;5006057;28;20580;-60
2021/12/09 08:12:57;;;;;;;9.47;3.37;;;;;;;;;;5011332;28;20363;-60
2021/12/09 08:15:22;;;;;;;8.93;3.77;;;;;;;;;;4993558;28;20296;-60
2021/12/09 08:18:02;;;;;;;31.87;15.67;;;;;;;;;;4992472;28;20728;-60
2021/12/09 08:20:27;;;;;;;23.40;9.67;;;;;;;;;;4994312;28;20377;-60
2021/12/09 08:22:53;;;;;;;14.13;6.07;;;;;;;;;;5009727;28;20216;-60
2021/12/09 08:25:18;;;;;;;12.00;5.30;;;;;;;;;;5011314;28;20212;-60
2021/12/09 08:27:43;;;;;;;10.90;4.83;;;;;;;;;;5012633;28;20288;-61
2021/12/09 08:30:09;;;;;;;15.00;8.00;;;;;;;;;;5012155;28;20246;-61
2021/12/09 08:32:35;;;;;;;24.97;10.23;;;;;;;;;;5011899;28;20244;-59
2021/12/09 08:35:00;;;;;;;23.97;11.20;;;;;;;;;;5005005;28;20232;-61
2021/12/09 08:37:26;;;;;;;22.13;10.20;;;;;;;;;;5003762;28;20223;-60
2021/12/09 08:39:51;;;;;;;20.13;8.90;;;;;;;;;;4998747;28;20274;-61
2021/12/09 08:42:16;;;;;;;17.00;7.77;;;;;;;;;;5010249;28;20259;-61
2021/12/09 08:44:41;;;;;;;15.30;7.33;;;;;;;;;;5011820;28;20255;-61
2021/12/09 08:47:07;;;;;;;15.23;6.13;;;;;;;;;;5011005;28;20231;-61
2021/12/09 08:49:32;;;;;;;13.30;6.70;;;;;;;;;;5018319;28;20231;-61
2021/12/09 08:51:58;;;;;;;15.90;6.10;;;;;;;;;;5031908;28;20215;-61
2021/12/09 08:54:23;;;;;;;17.50;8.00;;;;;;;;;;5030405;28;20225;-61
2021/12/09 08:56:51;;;;;;;21.53;9.87;;;;;;;;;;5014196;28;20211;-61
2021/12/09 08:59:16;;;;;;;15.77;9.10;;;;;;;;;;5031281;28;20216;-61
2021/12/09 09:01:42;;;;;;;16.73;8.17;;;;;;;;;;5013577;28;20275;-61
2021/12/09 09:04:07;;;;;;;14.87;6.20;;;;;;;;;;5031561;28;20570;-61
2021/12/09 09:06:33;;;;;;;15.03;4.97;;;;;;;;;;5032012;28;20299;-61
2021/12/09 09:08:59;;;;;;;12.00;4.50;;;;;;;;;;5030686;28;21113;-61
2021/12/09 09:11:24;;;;;;;12.70;3.83;;;;;;;;;;5013549;28;20246;-61
2021/12/09 09:13:49;;;;;;;10.10;3.63;;;;;;;;;;5031575;28;20212;-61
2021/12/09 09:16:15;;;;;;;8.83;4.43;;;;;;;;;;5030621;28;20644;-61
2021/12/09 09:18:40;;;;;;;12.93;4.20;;;;;;;;;;5013941;28;20216;-61
2021/12/09 09:21:05;;;;;;;10.47;5.13;;;;;;;;;;5027862;28;20215;-60
2021/12/09 09:23:31;;;;;;;16.03;5.90;;;;;;;;;;5011874;28;20216;-61
2021/12/09 09:25:56;;;;;;;18.77;6.03;;;;;;;;;;5014396;28;20218;-61
2021/12/09 09:28:21;;;;;;;15.30;5.70;;;;;;;;;;5014249;28;20232;-61
2021/12/09 09:30:53;;;;;;;12.23;5.70;;;;;;;;;;5015460;28;20240;-61
2021/12/09 09:33:18;;;;;;;17.60;5.60;;;;;;;;;;5015423;28;20216;-61
2021/12/09 09:35:43;;;;;;;15.23;5.13;;;;;;;;;;5014757;28;20633;-61
2021/12/09 09:38:09;;;;;;;11.60;5.00;;;;;;;;;;5017896;28;20723;-61
2021/12/09 09:40:45;;;;;;;11.83;4.93;;;;;;;;;;5034132;28;20719;-61
2021/12/09 09:43:26;;;;;;;13.67;4.50;;;;;;;;;;5028943;28;20751;-61
2021/12/09 09:45:52;;;;;;;12.27;4.73;;;;;;;;;;5017871;28;20326;-61
2021/12/09 09:48:17;;;;;;;16.87;8.90;;;;;;;;;;5032005;28;20231;-61
2021/12/09 09:50:42;;;;;;;10.67;7.17;;;;;;;;;;5047015;28;20232;-61
2021/12/09 09:53:08;;;;;;;12.53;4.27;;;;;;;;;;5033694;28;20223;-61
2021/12/09 09:55:34;;;;;;;11.77;4.37;;;;;;;;;;5044047;28;20211;-61
2021/12/09 09:57:59;;;;;;;10.80;4.57;;;;;;;;;;5015512;28;20752;-61
2021/12/09 10:00:24;;;;;;;11.67;4.60;;;;;;;;;;5033080;28;20219;-61
2021/12/09 10:02:53;;;;;;;11.43;4.67;;;;;;;;;;5033963;28;20219;-61
2021/12/09 10:05:22;;;;;;;12.60;5.90;;;;;;;;;;5016580;28;20204;-61
2021/12/09 10:07:48;;;;;;;11.17;5.20;;;;;;;;;;5033294;28;20241;-61
2021/12/09 10:10:13;;;;;;;11.73;5.97;;;;;;;;;;5031297;28;20267;-61
2021/12/09 10:12:55;;;;;;;12.33;5.23;;;;;;;;;;5043739;28;20215;-61
2021/12/09 10:15:32;;;;;;;14.47;5.37;;;;;;;;;;5032418;28;20240;-62
2021/12/09 10:17:57;;;;;;;11.93;4.87;;;;;;;;;;5032305;28;20215;-61
2021/12/09 10:20:23;;;;;;;11.73;5.63;;;;;;;;;;5032588;28;20690;-61
2021/12/09 10:22:48;;;;;;;15.53;4.90;;;;;;;;;;5016735;28;20254;-61
2021/12/09 10:25:16;;;;;;;14.50;5.30;;;;;;;;;;5014951;28;20254;-61
2021/12/09 10:27:44;;;;;;;11.93;6.20;;;;;;;;;;5034158;28;20687;-61
2021/12/09 10:30:12;;;;;;;14.70;6.03;;;;;;;;;;5033853;28;20569;-61
2021/12/09 10:32:39;;;;;;;13.43;5.73;;;;;;;;;;5033641;28;20287;-61
2021/12/09 10:35:05;;;;;;;12.83;5.07;;;;;;;;;;5033651;28;20254;-62
2021/12/09 10:37:30;;;;;;;12.77;5.40;;;;;;;;;;5034035;28;20605;-61
2021/12/09 10:39:58;;;;;;;10.13;4.63;;;;;;;;;;5017555;28;20213;-61
2021/12/09 10:42:24;;;;;;;12.73;4.60;;;;;;;;;;4996492;28;20573;-61
2021/12/09 10:45:01;;;;;;;11.00;5.33;;;;;;;;;;4996852;28;20291;-61
2021/12/09 10:47:47;;;;;;;11.70;4.60;;;;;;;;;;5013171;28;20238;-61
2021/12/09 10:50:21;;;;;;;11.70;4.70;;;;;;;;;;4993010;28;20720;-61
2021/12/09 10:52:50;;;;;;;12.20;4.60;;;;;;;;;;4992878;28;20274;-61
2021/12/09 10:55:17;;;;;;;12.70;5.30;;;;;;;;;;5005723;28;20295;-61
2021/12/09 10:57:43;;;;;;;11.73;4.97;;;;;;;;;;5014091;28;20204;-61
2021/12/09 11:00:15;;;;;;;11.23;5.20;;;;;;;;;;5012851;28;20220;-61
2021/12/09 11:02:55;;;;;;;15.10;7.00;;;;;;;;;;5013964;28;20679;-61
2021/12/09 11:05:20;;;;;;;11.17;5.67;;;;;;;;;;5012457;28;20275;-61
2021/12/09 11:07:45;;;;;;;14.50;6.33;;;;;;;;;;5012967;28;20688;-61
2021/12/09 11:10:15;;;;;;;12.30;6.20;;;;;;;;;;5013235;28;20339;-61
2021/12/09 11:12:48;;;;;;;15.50;6.20;;;;;;;;;;5012701;28;20241;-62
2021/12/09 11:15:13;;;;;;;16.20;6.27;;;;;;;;;;5001312;28;20225;-61
2021/12/09 11:17:42;;;;;;;16.07;7.07;;;;;;;;;;5010674;28;20235;-60
2021/12/09 11:20:07;;;;;;;14.10;6.87;;;;;;;;;;5013081;28;20224;-62
2021/12/09 11:22:36;;;;;;;13.23;6.80;;;;;;;;;;5011920;28;20212;-61
2021/12/09 11:25:04;;;;;;;10.40;6.03;;;;;;;;;;5013090;28;20243;-60
2021/12/09 11:27:30;;;;;;;14.93;6.37;;;;;;;;;;5012246;28;20220;-61
2021/12/09 11:30:07;;;;;;;15.50;6.93;;;;;;;;;;5012647;28;20244;-61
2021/12/09 11:32:41;;;;;;;17.67;6.90;;;;;;;;;;5012206;28;20212;-60
2021/12/09 11:35:13;;;;;;;16.93;6.57;;;;;;;;;;5011204;28;20209;-61
2021/12/09 11:37:44;;;;;;;15.57;7.23;;;;;;;;;;5013533;28;20247;-61
2021/12/09 11:40:14;;;;;;;13.30;7.20;;;;;;;;;;5007935;28;20216;-61
2021/12/09 11:42:51;;;;;;;13.80;7.33;;;;;;;;;;5012396;28;20515;-60
2021/12/09 11:45:17;;;;;;;13.63;7.40;;;;;;;;;;5011592;28;20234;-60
2021/12/09 11:47:43;;;;;;;20.20;7.00;;;;;;;;;;5012457;28;20221;-60
2021/12/09 11:50:10;;;;;;;19.50;8.00;;;;;;;;;;5020833;28;20322;-61
2021/12/09 11:52:37;;;;;;;18.23;8.20;;;;;;;;;;5015015;28;20299;-61
2021/12/09 11:55:05;;;;;;;15.33;7.20;;;;;;;;;;5032183;28;20220;-62
2021/12/09 11:57:40;;;;;;;15.20;8.40;;;;;;;;;;5031806;28;20580;-61
2021/12/09 12:11:37;;;;;;;14.37;7.20;;;;;;;;;;5018013;28;20582;-61
2021/12/09 12:14:10;;;;;;;17.07;7.43;;;;;;;;;;5014697;28;20248;-62
2021/12/09 12:19:18;;;;;;;14.13;7.40;;;;;;;;;;5031313;28;20667;-61
2021/12/09 12:22:02;;;;;;;16.43;6.53;;;;;;;;;;5024529;28;20726;-61
2021/12/09 12:24:45;;;;;;;11.47;6.70;;;;;;;;;;5011674;28;20248;-61
2021/12/09 12:27:35;;;;;;;11.93;6.40;;;;;;;;;;5012034;28;20220;-61
2021/12/09 12:30:15;;;;;;;13.77;6.90;;;;;;;;;;4995721;28;20224;-61
2021/12/09 12:33:06;;;;;;;14.77;7.47;;;;;;;;;;4996250;28;20215;-61
2021/12/09 12:38:29;;;;;;;18.23;7.70;;;;;;;;;;4991746;28;20296;-61
2021/12/09 12:41:04;;;;;;;14.23;6.73;;;;;;;;;;5011649;28;20575;-61
2021/12/09 12:43:32;;;;;;;13.00;6.80;;;;;;;;;;5010963;28;20571;-61
2021/12/09 12:46:15;;;;;;;12.53;6.23;;;;;;;;;;5011753;28;20227;-61
2021/12/09 12:48:57;;;;;;;12.40;6.77;;;;;;;;;;5011958;28;20232;-61
2021/12/09 12:51:45;;;;;;;14.30;7.03;;;;;;;;;;4996438;28;20231;-61
2021/12/09 12:54:13;;;;;;;13.40;6.40;;;;;;;;;;5011454;28;20216;-61
2021/12/09 12:56:40;;;;;;;10.27;6.30;;;;;;;;;;5012722;28;20251;-61
2021/12/09 12:59:07;;;;;;;12.27;6.73;;;;;;;;;;5011302;28;20212;-61
2021/12/09 13:01:33;;;;;;;11.23;6.47;;;;;;;;;;5016460;28;20275;-61
2021/12/09 13:04:10;;;;;;;14.03;6.60;;;;;;;;;;5016237;28;20706;-61
2021/12/09 13:06:38;;;;;;;12.00;6.60;;;;;;;;;;5015588;28;20287;-61
2021/12/09 13:09:31;;;;;;;11.73;6.20;;;;;;;;;;5014549;28;20225;-61
2021/12/09 13:12:06;;;;;;;12.63;6.37;;;;;;;;;;5016401;28;20239;-61
2021/12/09 13:14:35;;;;;;;10.07;6.17;;;;;;;;;;5007290;28;20227;-61
2021/12/09 13:17:05;;;;;;;12.63;6.80;;;;;;;;;;4998823;28;20227;-61
2021/12/09 13:19:35;;;;;;;13.57;7.43;;;;;;;;;;5016005;28;20216;-61
2021/12/09 13:22:01;;;;;;;11.73;6.50;;;;;;;;;;5008116;28;20215;-62
2021/12/09 13:24:32;;;;;;;11.77;6.60;;;;;;;;;;5034279;28;20554;-61
2021/12/09 13:27:08;;;;;;;10.70;6.60;;;;;;;;;;5035840;28;20242;-61
2021/12/09 13:29:44;;;;;;;12.20;7.13;;;;;;;;;;5034530;28;20227;-61
2021/12/09 13:32:40;;;;;;;12.13;7.07;;;;;;;;;;5035179;28;20211;-61
2021/12/09 13:35:36;;;;;;;11.00;6.27;;;;;;;;;;5034247;28;20227;-62
2021/12/09 13:46:20;;;;;;;16.70;10.03;;;;;;;;;;5033290;28;20270;-62
2021/12/09 13:48:59;;;;;;;17.07;10.17;;;;;;;;;;5034158;28;20241;-62
2021/12/09 13:51:56;;;;;;;13.43;9.03;;;;;;;;;;5012425;28;20707;-62
2021/12/09 13:54:25;;;;;;;16.40;10.17;;;;;;;;;;5032914;28;20220;-61
2021/12/09 13:56:56;;;;;;;12.73;8.53;;;;;;;;;;5015708;28;20671;-61
2021/12/09 13:59:22;;;;;;;13.80;9.40;;;;;;;;;;5052452;28;20264;-61
2021/12/09 14:01:47;;;;;;;12.87;8.17;;;;;;;;;;5027458;28;20219;-61
2021/12/09 14:04:16;;;;;;;14.30;8.30;;;;;;;;;;5008813;28;20222;-62
2021/12/09 14:06:48;;;;;;;16.97;9.70;;;;;;;;;;4999379;28;20213;-61
2021/12/09 14:09:13;;;;;;;13.53;7.97;;;;;;;;;;5007248;28;20436;-61
2021/12/09 14:11:45;;;;;;;11.77;7.63;;;;;;;;;;5011919;28;20220;-62
2021/12/09 14:14:15;;;;;;;11.97;7.37;;;;;;;;;;5013217;28;20307;-61
2021/12/09 14:16:50;;;;;;;12.00;6.77;;;;;;;;;;5024383;28;20216;-61
2021/12/09 14:22:00;;;;;;;12.27;6.23;;;;;;;;;;5016371;28;20699;-61
2021/12/09 14:24:27;;;;;;;11.67;7.03;;;;;;;;;;5005660;28;20223;-62
2021/12/09 14:26:54;;;;;;;10.97;6.50;;;;;;;;;;5018029;28;20215;-61
2021/12/09 14:29:19;;;;;;;12.23;6.13;;;;;;;;;;4999871;28;20227;-61
2021/12/09 14:31:45;;;;;;;10.63;6.33;;;;;;;;;;5007017;28;20604;-61
2021/12/09 14:34:11;;;;;;;13.57;7.00;;;;;;;;;;5010795;28;20362;-61
2021/12/09 14:36:36;;;;;;;10.17;6.83;;;;;;;;;;5008804;28;20688;-61
2021/12/09 14:39:05;;;;;;;14.13;7.10;;;;;;;;;;5003433;28;20219;-61
2021/12/09 14:41:30;;;;;;;16.87;7.93;;;;;;;;;;5025875;28;20220;-61
2021/12/09 14:43:56;;;;;;;12.10;6.37;;;;;;;;;;5026671;28;20230;-61
2021/12/09 14:46:24;;;;;;;10.97;6.63;;;;;;;;;;5024523;28;20338;-61
2021/12/09 14:48:49;;;;;;;10.27;6.70;;;;;;;;;;5021377;28;20220;-61
2021/12/09 14:51:17;;;;;;;12.03;6.87;;;;;;;;;;4999755;28;20293;-61
2021/12/09 14:53:43;;;;;;;10.10;6.43;;;;;;;;;;4999477;28;20211;-61
2021/12/09 14:56:20;;;;;;;9.33;6.83;;;;;;;;;;5022212;28;20212;-61
2021/12/09 14:58:45;;;;;;;12.00;7.07;;;;;;;;;;5007839;28;20204;-61
2021/12/09 15:01:15;;;;;;;10.97;6.53;;;;;;;;;;5025061;28;20219;-61